Skip Navigation LinksHome page > Tools > METAR decoder Skip Navigation Links

METAR decoder

Settings

METAR

Chicago O'Hare Intl, Chicago

For information only: do not use for flight planning or navigation.
Latest weather
Observation time Friday, May 25, 2018 6:51 AM CDT
Local time Friday, May 25, 2018 7:50 AM CDT
Flight conditions Visual Meteorological Conditions
Winds
Wind direction South-Southwest (210°)
Wind speed 9 mph
Visibility 10 mi.
Sky condition
Ceiling unlimited
Cloud layer few clouds 25,000 ft.
Temperature 71°F
Dewpoint 54°F
Altimeter 29.94 in.Hg
Pressure change last 3 hours0.04 in.Hg
Pressure falling more slowly
Derived measurements
Relative humidity 55%
Density altitude 1627 ft.
Sea-level pressure 29.92 in.Hg
Climate data
Temperature minimum, last 6 hours 67°F
Temperature maximum, last 6 hours 71°F
Remarks
Automated weather observing station with precipitation discriminator.
METAR KORD 251151Z 21008KT 10SM FEW250 22/12 A2994 RMK AO2 SLP133 T02170122 10217 20194 56012

InnerDrive.Weather 4.0.6615.0 Release CLR 4.0.30319.42000
Copyright ©2018 Inner Drive Technology. All rights reserved. Portions Copyright ©1986-2018 David Braverman.

Find weather

Site navigation


Skip Navigation Links

Place info

Page info

PayPal - The safer, easier way to pay online!

Return home.

Copyright ©2018 Inner Drive Technology. Purveyors of fine, hand-crafted computer software. Page printed 2018-05-25T12:50:51 UTC.